Time;durP1;ratioP1;P1;durP2;ratioP2;P2;SDS_P1;SDS_P2;PMS_P1;PMS_P2;Temp;Humidity;BMP_temperature;BMP_pressure;BME280_temperature;BME280_humidity;BME280_pressure;Samples;Min_cycle;Max_cycle;Signal;HPM_P1;HPM_P2
2023/08/04 03:44:25;;;;;;;1999.90;999.90;;;;;;;;;;4932605;29;20308;-76
2023/08/04 03:47:10;;;;;;;1999.90;999.90;;;;;;;;;;4934738;29;20213;-76
2023/08/04 03:49:54;;;;;;;1999.90;999.90;;;;;;;;;;4934900;29;20337;-76
2023/08/04 03:52:39;;;;;;;1999.90;999.90;;;;;;;;;;4935171;29;20281;-75
2023/08/04 03:55:24;;;;;;;1999.90;999.90;;;;;;;;;;4932503;29;20233;-76
2023/08/04 03:58:09;;;;;;;1999.90;999.90;;;;;;;;;;4932924;29;20098;-76
2023/08/04 04:00:56;;;;;;;1999.90;999.90;;;;;;;;;;4933130;29;20341;-75
2023/08/04 04:03:41;;;;;;;1999.90;999.90;;;;;;;;;;4934529;29;20725;-74
2023/08/04 04:06:26;;;;;;;1999.90;999.90;;;;;;;;;;4933862;29;20229;-75
2023/08/04 04:09:11;;;;;;;1999.90;999.90;;;;;;;;;;4934315;29;20221;-76
2023/08/04 04:11:56;;;;;;;1999.90;999.90;;;;;;;;;;4934345;29;20582;-75
2023/08/04 04:14:41;;;;;;;1999.90;999.90;;;;;;;;;;4934535;29;20785;-76
2023/08/04 04:17:27;;;;;;;1999.90;999.90;;;;;;;;;;4933586;29;20436;-75
2023/08/04 04:20:12;;;;;;;1999.90;999.90;;;;;;;;;;4938387;29;20296;-75
2023/08/04 04:22:57;;;;;;;1999.90;999.90;;;;;;;;;;4931963;29;20242;-75
2023/08/04 04:25:42;;;;;;;1999.90;999.90;;;;;;;;;;4933127;29;20326;-76
2023/08/04 04:28:27;;;;;;;1999.90;999.90;;;;;;;;;;4935206;29;20260;-72
2023/08/04 04:31:12;;;;;;;1999.90;999.90;;;;;;;;;;4936494;29;20213;-76
2023/08/04 04:33:58;;;;;;;1999.90;999.90;;;;;;;;;;4918325;29;20229;-76
2023/08/04 04:36:42;;;;;;;1999.90;999.90;;;;;;;;;;4919215;29;20202;-76
2023/08/04 04:39:27;;;;;;;1999.90;999.90;;;;;;;;;;4919087;29;20286;-76
2023/08/04 04:42:12;;;;;;;1999.90;999.90;;;;;;;;;;4918816;29;20309;-76
2023/08/04 04:44:57;;;;;;;1999.90;999.90;;;;;;;;;;4919345;29;20202;-75
2023/08/04 04:47:42;;;;;;;1999.90;999.90;;;;;;;;;;4919064;29;20217;-76
2023/08/04 04:50:28;;;;;;;1999.90;999.90;;;;;;;;;;4918972;29;20289;-76
2023/08/04 04:53:13;;;;;;;1999.90;999.90;;;;;;;;;;4934217;29;20289;-75
2023/08/04 04:55:58;;;;;;;1999.90;999.90;;;;;;;;;;4936670;29;20734;-74
2023/08/04 04:58:44;;;;;;;1999.90;999.90;;;;;;;;;;4936103;29;20409;-72
2023/08/04 05:01:29;;;;;;;1999.90;999.90;;;;;;;;;;4937354;29;20270;-72
2023/08/04 05:04:14;;;;;;;1999.90;999.90;;;;;;;;;;4934555;29;20212;-76
2023/08/04 05:07:00;;;;;;;1999.90;999.90;;;;;;;;;;4936625;29;20326;-78
2023/08/04 05:09:45;;;;;;;1999.90;999.90;;;;;;;;;;4937695;29;20674;-77
2023/08/04 05:12:30;;;;;;;1999.90;999.90;;;;;;;;;;4937434;29;20610;-78
2023/08/04 05:15:15;;;;;;;1999.90;999.90;;;;;;;;;;4937336;29;20822;-77
2023/08/04 05:18:00;;;;;;;1999.90;999.90;;;;;;;;;;4937374;29;20301;-77
2023/08/04 05:20:45;;;;;;;1999.90;999.90;;;;;;;;;;4936285;29;20294;-78
2023/08/04 05:23:31;;;;;;;1999.90;999.90;;;;;;;;;;4934897;29;20237;-76
2023/08/04 05:26:16;;;;;;;1999.90;999.90;;;;;;;;;;4935001;29;20209;-76
2023/08/04 05:29:01;;;;;;;1999.90;999.90;;;;;;;;;;4933700;29;20230;-77
2023/08/04 05:31:46;;;;;;;1999.90;999.90;;;;;;;;;;4936144;29;20220;-74
2023/08/04 05:34:31;;;;;;;1999.90;999.90;;;;;;;;;;4937101;29;20327;-76
2023/08/04 05:37:16;;;;;;;1999.90;999.90;;;;;;;;;;4937162;29;20225;-77
2023/08/04 05:40:02;;;;;;;1999.90;999.90;;;;;;;;;;4937159;29;20341;-75
2023/08/04 05:42:47;;;;;;;1999.90;999.90;;;;;;;;;;4936541;29;20614;-75
2023/08/04 05:45:34;;;;;;;1999.90;999.90;;;;;;;;;;4936727;29;20282;-76
2023/08/04 05:48:19;;;;;;;1999.90;999.90;;;;;;;;;;4936809;29;20213;-76
2023/08/04 05:51:04;;;;;;;1999.90;999.90;;;;;;;;;;4937039;29;20249;-76
2023/08/04 05:53:49;;;;;;;1999.90;999.90;;;;;;;;;;4937165;29;20285;-76
2023/08/04 05:56:36;;;;;;;1999.90;999.90;;;;;;;;;;4936521;29;20411;-77
2023/08/04 05:59:21;;;;;;;1999.90;999.90;;;;;;;;;;4934874;29;20600;-77
2023/08/04 06:02:06;;;;;;;1999.90;999.90;;;;;;;;;;4935745;29;20229;-75
2023/08/04 06:04:52;;;;;;;1999.90;999.90;;;;;;;;;;4932468;29;20206;-77
2023/08/04 06:07:37;;;;;;;1999.90;999.90;;;;;;;;;;4935298;29;20217;-78
2023/08/04 06:10:22;;;;;;;1999.90;999.90;;;;;;;;;;4932548;29;20217;-77
2023/08/04 06:13:08;;;;;;;1999.90;999.90;;;;;;;;;;4935480;29;20241;-77
2023/08/04 06:15:53;;;;;;;1999.90;999.90;;;;;;;;;;4928318;29;20422;-78
2023/08/04 06:18:38;;;;;;;1999.90;999.90;;;;;;;;;;4935754;29;20214;-77
2023/08/04 06:21:23;;;;;;;1999.90;999.90;;;;;;;;;;4935083;29;20221;-77
2023/08/04 06:24:08;;;;;;;1999.90;999.90;;;;;;;;;;4930250;29;20244;-77
2023/08/04 06:26:53;;;;;;;1999.90;999.90;;;;;;;;;;4929174;29;20213;-76
2023/08/04 06:29:39;;;;;;;1999.90;999.90;;;;;;;;;;4935330;29;20215;-77
2023/08/04 06:32:24;;;;;;;1999.90;999.90;;;;;;;;;;4934543;29;20789;-77
2023/08/04 06:35:09;;;;;;;1999.90;999.90;;;;;;;;;;4930589;29;20326;-78
2023/08/04 06:37:54;;;;;;;1999.90;999.90;;;;;;;;;;4922986;29;20706;-78
2023/08/04 06:40:40;;;;;;;1999.90;999.90;;;;;;;;;;4935905;29;20209;-77
2023/08/04 06:43:25;;;;;;;1999.90;999.90;;;;;;;;;;4933532;29;20617;-78
2023/08/04 06:46:14;;;;;;;1999.90;999.90;;;;;;;;;;4935900;29;20799;-77
2023/08/04 06:48:59;;;;;;;1999.90;999.90;;;;;;;;;;4934977;29;20289;-78
2023/08/04 06:51:44;;;;;;;1999.90;999.90;;;;;;;;;;4935263;29;20709;-78
2023/08/04 06:54:30;;;;;;;1999.90;999.90;;;;;;;;;;4932027;29;20224;-77
2023/08/04 06:57:15;;;;;;;1999.90;999.90;;;;;;;;;;4930755;29;20594;-78
2023/08/04 06:59:59;;;;;;;1999.90;999.90;;;;;;;;;;4927841;29;20586;-77
2023/08/04 07:02:47;;;;;;;1999.90;999.90;;;;;;;;;;4932135;29;20244;-78
2023/08/04 07:05:32;;;;;;;1999.90;999.90;;;;;;;;;;4934538;29;20587;-78
2023/08/04 07:08:17;;;;;;;1999.90;999.90;;;;;;;;;;4933438;29;20742;-78
2023/08/04 07:11:01;;;;;;;1999.90;999.90;;;;;;;;;;4932251;29;20233;-76
2023/08/04 07:13:46;;;;;;;1999.90;999.90;;;;;;;;;;4934152;29;20604;-74
2023/08/04 07:16:31;;;;;;;1999.90;999.90;;;;;;;;;;4934627;29;20305;-78
2023/08/04 07:19:18;;;;;;;1999.90;999.90;;;;;;;;;;4933513;29;20593;-72
2023/08/04 07:22:02;;;;;;;1999.90;999.90;;;;;;;;;;4934860;29;20230;-77
2023/08/04 07:24:53;;;;;;;1999.90;999.90;;;;;;;;;;4933935;29;20219;-78
2023/08/04 07:27:38;;;;;;;1999.90;999.90;;;;;;;;;;4934377;29;20277;-77
2023/08/04 07:30:23;;;;;;;1999.90;999.90;;;;;;;;;;4934867;29;20231;-78
2023/08/04 07:33:08;;;;;;;1999.90;999.90;;;;;;;;;;4932387;29;20240;-76
2023/08/04 07:35:54;;;;;;;1999.90;999.90;;;;;;;;;;4937472;29;20308;-76
2023/08/04 07:38:39;;;;;;;1999.90;999.90;;;;;;;;;;4938121;29;20599;-77
2023/08/04 07:41:25;;;;;;;1999.90;999.90;;;;;;;;;;4935659;29;20740;-77
2023/08/04 07:44:10;;;;;;;1999.90;999.90;;;;;;;;;;4935522;29;20376;-78
2023/08/04 07:46:55;;;;;;;1999.90;999.90;;;;;;;;;;4936747;29;20209;-77
2023/08/04 07:49:40;;;;;;;1999.90;999.90;;;;;;;;;;4940080;29;20216;-77
2023/08/04 07:52:26;;;;;;;1999.90;999.90;;;;;;;;;;4936971;29;20232;-77
2023/08/04 07:55:12;;;;;;;1999.90;999.90;;;;;;;;;;4940328;29;20353;-78
2023/08/04 07:57:57;;;;;;;1999.90;999.90;;;;;;;;;;4935478;29;20216;-77
2023/08/04 08:00:42;;;;;;;1999.90;999.90;;;;;;;;;;4936728;29;20286;-78
2023/08/04 08:03:27;;;;;;;1999.90;999.90;;;;;;;;;;4936289;29;20233;-77
2023/08/04 08:06:12;;;;;;;1999.90;999.90;;;;;;;;;;4930390;29;20210;-76
2023/08/04 08:08:58;;;;;;;1999.90;999.90;;;;;;;;;;4936728;29;20213;-76
2023/08/04 08:11:43;;;;;;;1999.90;999.90;;;;;;;;;;4934952;29;20216;-77
2023/08/04 08:14:28;;;;;;;1999.90;999.90;;;;;;;;;;4933697;29;21049;-77
2023/08/04 08:17:13;;;;;;;1999.90;999.90;;;;;;;;;;4935759;29;20224;-77
2023/08/04 08:19:57;;;;;;;1999.90;999.90;;;;;;;;;;4936527;29;20587;-77
2023/08/04 08:22:42;;;;;;;1999.90;999.90;;;;;;;;;;4935371;29;20346;-77
2023/08/04 08:25:29;;;;;;;1999.90;999.90;;;;;;;;;;4938822;29;20261;-78
2023/08/04 08:28:14;;;;;;;1999.90;999.90;;;;;;;;;;4933578;29;20273;-77
2023/08/04 08:30:59;;;;;;;1999.90;999.90;;;;;;;;;;4934183;29;20217;-77
2023/08/04 08:33:44;;;;;;;1999.90;999.90;;;;;;;;;;4931371;29;20358;-76
2023/08/04 08:36:28;;;;;;;1999.90;999.90;;;;;;;;;;4933023;29;20316;-76
2023/08/04 08:39:13;;;;;;;1999.90;999.90;;;;;;;;;;4928221;29;20209;-76
2023/08/04 08:42:00;;;;;;;1999.90;999.90;;;;;;;;;;4932992;29;20209;-76
2023/08/04 08:44:45;;;;;;;1999.90;999.90;;;;;;;;;;4933317;29;20213;-76
2023/08/04 08:47:33;;;;;;;1999.90;999.90;;;;;;;;;;4933018;29;20205;-76
2023/08/04 08:50:18;;;;;;;1999.90;999.90;;;;;;;;;;4934057;29;20590;-76
2023/08/04 08:53:04;;;;;;;1999.90;999.90;;;;;;;;;;4933226;29;20333;-75
2023/08/04 08:55:50;;;;;;;1999.90;999.90;;;;;;;;;;4932900;29;20228;-76
2023/08/04 08:58:37;;;;;;;1999.90;999.90;;;;;;;;;;4934123;29;20217;-76
2023/08/04 09:01:22;;;;;;;1999.90;999.90;;;;;;;;;;4928419;29;20220;-76
2023/08/04 09:04:07;;;;;;;1999.90;999.90;;;;;;;;;;4932331;29;20239;-76
2023/08/04 09:06:52;;;;;;;1999.90;999.90;;;;;;;;;;4935258;29;20212;-75
2023/08/04 09:09:36;;;;;;;1999.90;999.90;;;;;;;;;;4937495;29;20254;-76
2023/08/04 09:12:24;;;;;;;1999.90;999.90;;;;;;;;;;4931572;29;20075;-77
2023/08/04 09:15:12;;;;;;;1999.90;999.90;;;;;;;;;;4936176;29;20221;-76
2023/08/04 09:17:57;;;;;;;1999.90;999.90;;;;;;;;;;4936990;29;20612;-76
2023/08/04 09:20:41;;;;;;;1999.90;999.90;;;;;;;;;;4936717;29;20773;-75
2023/08/04 09:23:27;;;;;;;1999.90;999.90;;;;;;;;;;4936652;29;20236;-76
2023/08/04 09:26:13;;;;;;;1999.90;999.90;;;;;;;;;;4934765;29;20257;-76
2023/08/04 09:29:05;;;;;;;1999.90;999.90;;;;;;;;;;4937058;29;20242;-76
2023/08/04 09:31:51;;;;;;;1999.90;999.90;;;;;;;;;;4936694;29;20330;-77
2023/08/04 09:34:36;;;;;;;1999.90;999.90;;;;;;;;;;4937194;29;20273;-77
2023/08/04 09:37:21;;;;;;;1999.90;999.90;;;;;;;;;;4936853;29;20237;-77
2023/08/04 09:40:12;;;;;;;1999.90;999.90;;;;;;;;;;4936630;29;20224;-76
2023/08/04 09:42:58;;;;;;;1999.90;999.90;;;;;;;;;;4936274;29;20238;-76
2023/08/04 09:45:43;;;;;;;1999.90;999.90;;;;;;;;;;4936645;29;20289;-77
2023/08/04 09:48:29;;;;;;;1999.90;999.90;;;;;;;;;;4933590;29;20333;-75
2023/08/04 09:51:14;;;;;;;1999.90;999.90;;;;;;;;;;4932449;29;20262;-76
2023/08/04 09:53:59;;;;;;;1999.90;999.90;;;;;;;;;;4932263;29;20417;-76
2023/08/04 09:56:45;;;;;;;1999.90;999.90;;;;;;;;;;4933641;29;20764;-77
2023/08/04 09:59:30;;;;;;;1999.90;999.90;;;;;;;;;;4934570;29;20212;-76
2023/08/04 10:02:15;;;;;;;1999.90;999.90;;;;;;;;;;4927996;29;20306;-76
2023/08/04 10:05:02;;;;;;;1999.90;999.90;;;;;;;;;;4933091;29;20668;-77
2023/08/04 10:07:47;;;;;;;1999.90;999.90;;;;;;;;;;4934273;29;20216;-75
2023/08/04 10:10:32;;;;;;;1999.90;999.90;;;;;;;;;;4932166;29;20591;-76
2023/08/04 10:13:18;;;;;;;1999.90;999.90;;;;;;;;;;4927804;29;20406;-76
2023/08/04 10:16:06;;;;;;;1999.90;999.90;;;;;;;;;;4934082;29;20770;-77
2023/08/04 10:18:51;;;;;;;1999.90;999.90;;;;;;;;;;4934531;29;20220;-76
2023/08/04 10:21:39;;;;;;;1999.90;999.90;;;;;;;;;;4930634;29;20213;-75
2023/08/04 10:24:25;;;;;;;1999.90;999.90;;;;;;;;;;4931787;29;20205;-74
2023/08/04 10:27:14;;;;;;;1999.90;999.90;;;;;;;;;;4934965;29;20249;-75
2023/08/04 10:30:03;;;;;;;1999.90;999.90;;;;;;;;;;4933629;29;20220;-75
2023/08/04 10:32:48;;;;;;;1999.90;999.90;;;;;;;;;;4933070;29;20238;-76
2023/08/04 10:35:34;;;;;;;1999.90;999.90;;;;;;;;;;4933105;29;20221;-77
2023/08/04 10:38:21;;;;;;;1999.90;999.90;;;;;;;;;;4929464;29;20216;-77
2023/08/04 10:41:06;;;;;;;1999.90;999.90;;;;;;;;;;4933654;29;20224;-77
2023/08/04 10:44:01;;;;;;;1999.90;999.90;;;;;;;;;;4934809;29;20253;-77
2023/08/04 10:46:48;;;;;;;1999.90;999.90;;;;;;;;;;4934264;29;20206;-77
2023/08/04 10:49:33;;;;;;;1999.90;999.90;;;;;;;;;;4935292;29;20229;-77
2023/08/04 10:52:18;;;;;;;1999.90;999.90;;;;;;;;;;4935677;29;20229;-78
2023/08/04 10:55:06;;;;;;;1999.90;999.90;;;;;;;;;;4934947;29;20209;-77
2023/08/04 10:57:51;;;;;;;1999.90;999.90;;;;;;;;;;4934991;29;20741;-77
2023/08/04 11:00:36;;;;;;;1999.90;999.90;;;;;;;;;;4930498;29;20581;-76
2023/08/04 11:03:22;;;;;;;1999.90;999.90;;;;;;;;;;4935413;29;20785;-79
2023/08/04 11:06:07;;;;;;;1999.90;999.90;;;;;;;;;;4933898;29;20244;-76
2023/08/04 11:08:52;;;;;;;1999.90;999.90;;;;;;;;;;4933859;29;20220;-77
2023/08/04 11:11:39;;;;;;;1999.90;999.90;;;;;;;;;;4930062;29;20401;-78
2023/08/04 11:14:25;;;;;;;1999.90;999.90;;;;;;;;;;4934356;29;20209;-77
2023/08/04 11:17:13;;;;;;;1999.90;999.90;;;;;;;;;;4936783;29;20232;-78
2023/08/04 11:19:58;;;;;;;1999.90;999.90;;;;;;;;;;4937872;29;20225;-77
2023/08/04 11:22:44;;;;;;;1999.90;999.90;;;;;;;;;;4935110;29;20244;-73
2023/08/04 11:25:32;;;;;;;1999.90;999.90;;;;;;;;;;4934707;29;20209;-72
2023/08/04 11:28:19;;;;;;;1999.90;999.90;;;;;;;;;;4926497;29;20258;-75
2023/08/04 11:31:04;;;;;;;1999.90;999.90;;;;;;;;;;4934390;29;20213;-75
2023/08/04 11:33:51;;;;;;;1999.90;999.90;;;;;;;;;;4934908;29;20229;-78
2023/08/04 11:36:36;;;;;;;1999.90;999.90;;;;;;;;;;4934947;29;20229;-75
2023/08/04 11:39:21;;;;;;;1999.90;999.90;;;;;;;;;;4935004;29;20294;-77
2023/08/04 11:42:09;;;;;;;1999.90;999.90;;;;;;;;;;4934561;29;20228;-75
2023/08/04 11:44:55;;;;;;;1999.90;999.90;;;;;;;;;;4934962;29;20206;-76
2023/08/04 11:47:40;;;;;;;1999.90;999.90;;;;;;;;;;4935061;29;20449;-76
2023/08/04 11:50:26;;;;;;;1999.90;999.90;;;;;;;;;;4933813;29;20457;-76
2023/08/04 11:53:14;;;;;;;1999.90;999.90;;;;;;;;;;4934295;29;20248;-76
2023/08/04 11:56:01;;;;;;;1999.90;999.90;;;;;;;;;;4934821;29;20201;-76
2023/08/04 11:58:50;;;;;;;1999.90;999.90;;;;;;;;;;4934441;29;20234;-76
2023/08/04 12:01:36;;;;;;;1999.90;999.90;;;;;;;;;;4934506;29;20208;-76
2023/08/04 12:04:22;;;;;;;1999.90;999.90;;;;;;;;;;4934222;29;20223;-75
2023/08/04 12:07:07;;;;;;;1999.90;999.90;;;;;;;;;;4936582;29;20212;-74
2023/08/04 12:09:52;;;;;;;1999.90;999.90;;;;;;;;;;4932036;29;20543;-76
2023/08/04 12:12:38;;;;;;;1999.90;999.90;;;;;;;;;;4933386;29;20236;-77
2023/08/04 12:15:23;;;;;;;1999.90;999.90;;;;;;;;;;4932059;29;20663;-77
2023/08/04 12:31:24;;;;;;;1999.90;999.90;;;;;;;;;;5132148;27;20538;-78
2023/08/04 12:34:09;;;;;;;1999.90;999.90;;;;;;;;;;5132371;28;20230;-77
2023/08/04 12:36:54;;;;;;;1999.90;999.90;;;;;;;;;;5132137;28;20691;-77
2023/08/04 12:39:39;;;;;;;1999.90;999.90;;;;;;;;;;5131375;28;20223;-76
2023/08/04 12:42:24;;;;;;;1999.90;999.90;;;;;;;;;;5133098;28;20226;-78
2023/08/04 12:45:09;;;;;;;1999.90;999.90;;;;;;;;;;5134282;28;20206;-78
2023/08/04 12:47:56;;;;;;;1999.90;999.90;;;;;;;;;;5134740;28;20269;-77
2023/08/04 12:50:41;;;;;;;1999.90;999.90;;;;;;;;;;5134027;28;20679;-77
2023/08/04 12:53:26;;;;;;;1999.90;999.90;;;;;;;;;;5133656;28;20229;-77
2023/08/04 12:56:11;;;;;;;1999.90;999.90;;;;;;;;;;5134198;28;20203;-77
2023/08/04 12:58:56;;;;;;;1999.90;999.90;;;;;;;;;;5134292;28;20207;-77
2023/08/04 13:01:40;;;;;;;1999.90;999.90;;;;;;;;;;5133758;28;20272;-77
2023/08/04 13:04:27;;;;;;;1999.90;999.90;;;;;;;;;;5134770;28;20560;-78
2023/08/04 13:07:12;;;;;;;1999.90;999.90;;;;;;;;;;5134752;28;20624;-78
2023/08/04 13:09:56;;;;;;;1999.90;999.90;;;;;;;;;;5133525;28;20468;-77
2023/08/04 13:12:41;;;;;;;1999.90;999.90;;;;;;;;;;5133009;28;20635;-78
2023/08/04 13:15:26;;;;;;;1999.90;999.90;;;;;;;;;;5132730;28;20206;-76
2023/08/04 13:18:11;;;;;;;1999.90;999.90;;;;;;;;;;5133359;28;20210;-77
2023/08/04 13:20:57;;;;;;;1999.90;999.90;;;;;;;;;;5133594;28;20250;-78
2023/08/04 13:23:42;;;;;;;1999.90;999.90;;;;;;;;;;5132694;28;20717;-78
2023/08/04 13:26:27;;;;;;;1999.90;999.90;;;;;;;;;;5132903;28;20198;-77
2023/08/04 13:29:12;;;;;;;1999.90;999.90;;;;;;;;;;5132480;28;20199;-77
2023/08/04 13:31:57;;;;;;;1999.90;999.90;;;;;;;;;;5121467;28;20202;-77
2023/08/04 13:34:42;;;;;;;1999.90;999.90;;;;;;;;;;5119774;28;20217;-77
2023/08/04 13:37:28;;;;;;;1999.90;999.90;;;;;;;;;;5119054;28;20207;-78
2023/08/04 13:40:13;;;;;;;1999.90;999.90;;;;;;;;;;5118954;28;20222;-77
2023/08/04 13:42:58;;;;;;;1999.90;999.90;;;;;;;;;;5118975;28;20230;-77
2023/08/04 13:45:43;;;;;;;1999.90;999.90;;;;;;;;;;5119377;28;20214;-77
2023/08/04 13:48:28;;;;;;;1999.90;999.90;;;;;;;;;;5118187;28;20450;-77
2023/08/04 13:51:13;;;;;;;1999.90;999.90;;;;;;;;;;5118922;28;20203;-78
2023/08/04 13:54:00;;;;;;;1999.90;999.90;;;;;;;;;;5118275;28;20316;-78
2023/08/04 13:56:45;;;;;;;1999.90;999.90;;;;;;;;;;5118550;28;20203;-77
2023/08/04 13:59:29;;;;;;;1999.90;999.90;;;;;;;;;;5118796;28;20287;-78
2023/08/04 14:02:14;;;;;;;1999.90;999.90;;;;;;;;;;5117496;28;20222;-76
2023/08/04 14:04:59;;;;;;;1999.90;999.90;;;;;;;;;;5118530;28;20230;-77
2023/08/04 14:07:44;;;;;;;1999.90;999.90;;;;;;;;;;5117663;28;20497;-78
2023/08/04 14:10:30;;;;;;;1999.90;999.90;;;;;;;;;;5118188;28;20280;-77
2023/08/04 14:13:15;;;;;;;1999.90;999.90;;;;;;;;;;5117413;28;20761;-78
2023/08/04 14:16:07;;;;;;;1999.90;999.90;;;;;;;;;;5117836;28;20602;-77
2023/08/04 14:18:52;;;;;;;1999.90;999.90;;;;;;;;;;5117003;28;20206;-77
2023/08/04 14:21:38;;;;;;;1999.90;999.90;;;;;;;;;;5116795;28;20284;-77
2023/08/04 14:24:23;;;;;;;1999.90;999.90;;;;;;;;;;5116907;28;20195;-76
2023/08/04 14:27:10;;;;;;;1999.90;999.90;;;;;;;;;;5117584;28;20265;-77
2023/08/04 14:29:54;;;;;;;1999.90;999.90;;;;;;;;;;5118257;28;20812;-78
2023/08/04 14:32:41;;;;;;;1999.90;999.90;;;;;;;;;;5117872;28;20246;-78
2023/08/04 14:35:26;;;;;;;1999.90;999.90;;;;;;;;;;5118471;28;20215;-77
2023/08/04 14:38:11;;;;;;;1999.90;999.90;;;;;;;;;;5117015;28;20199;-77
2023/08/04 14:40:56;;;;;;;1999.90;999.90;;;;;;;;;;5118016;28;20227;-77
2023/08/04 14:43:43;;;;;;;1999.90;999.90;;;;;;;;;;5116828;28;20234;-77
2023/08/04 14:46:28;;;;;;;1999.90;999.90;;;;;;;;;;5116392;28;20407;-77
2023/08/04 14:49:12;;;;;;;1999.90;999.90;;;;;;;;;;5117321;28;20574;-77
2023/08/04 14:51:57;;;;;;;1999.90;999.90;;;;;;;;;;5116334;28;20203;-78
2023/08/04 14:54:42;;;;;;;1999.90;999.90;;;;;;;;;;5117255;28;20579;-77
2023/08/04 14:57:27;;;;;;;1999.90;999.90;;;;;;;;;;5116612;28;20199;-78
2023/08/04 15:00:14;;;;;;;1999.90;999.90;;;;;;;;;;5115939;28;20215;-77
2023/08/04 15:02:59;;;;;;;1999.90;999.90;;;;;;;;;;5116404;28;20226;-77
2023/08/04 15:05:44;;;;;;;1999.90;999.90;;;;;;;;;;5116153;28;20446;-77
2023/08/04 15:08:28;;;;;;;1999.90;999.90;;;;;;;;;;5117198;28;20699;-77
2023/08/04 15:11:14;;;;;;;1999.90;999.90;;;;;;;;;;5118129;28;20276;-77
2023/08/04 15:13:59;;;;;;;1999.90;999.90;;;;;;;;;;5116634;28;20309;-77
2023/08/04 15:16:45;;;;;;;1999.90;999.90;;;;;;;;;;5116078;28;20208;-78
2023/08/04 15:19:31;;;;;;;1999.90;999.90;;;;;;;;;;5115385;28;20313;-77
2023/08/04 15:22:16;;;;;;;1999.90;999.90;;;;;;;;;;5115711;28;20214;-77
2023/08/04 15:25:01;;;;;;;1999.90;999.90;;;;;;;;;;5115705;28;20202;-78
2023/08/04 15:27:46;;;;;;;1999.90;999.90;;;;;;;;;;5115547;28;20289;-78
2023/08/04 15:30:33;;;;;;;1999.90;999.90;;;;;;;;;;5114995;28;20210;-77
2023/08/04 15:33:20;;;;;;;1999.90;999.90;;;;;;;;;;5115163;28;20233;-78
2023/08/04 15:36:06;;;;;;;1999.90;999.90;;;;;;;;;;5115358;28;20199;-78
2023/08/04 15:38:51;;;;;;;1999.90;999.90;;;;;;;;;;5116747;28;20205;-77
2023/08/04 15:41:36;;;;;;;1999.90;999.90;;;;;;;;;;5117340;28;20636;-78
2023/08/04 15:44:21;;;;;;;1999.90;999.90;;;;;;;;;;5116583;28;20404;-77
2023/08/04 15:47:06;;;;;;;1999.90;999.90;;;;;;;;;;5116513;28;20277;-77
2023/08/04 15:49:52;;;;;;;1999.90;999.90;;;;;;;;;;5117349;28;20266;-78
2023/08/04 15:52:37;;;;;;;1999.90;999.90;;;;;;;;;;5116951;28;20321;-77
2023/08/04 15:55:22;;;;;;;1999.90;999.90;;;;;;;;;;5116276;28;20769;-78
2023/08/04 15:58:07;;;;;;;1999.90;999.90;;;;;;;;;;5117499;28;20215;-78
2023/08/04 16:00:52;;;;;;;1999.90;999.90;;;;;;;;;;5115842;28;20292;-78
2023/08/04 16:03:37;;;;;;;1999.90;999.90;;;;;;;;;;5116624;28;20415;-77
2023/08/04 16:06:24;;;;;;;1999.90;999.90;;;;;;;;;;5116876;28;20222;-77
2023/08/04 16:09:09;;;;;;;1999.90;999.90;;;;;;;;;;5116679;28;20196;-77
2023/08/04 16:11:54;;;;;;;1999.90;999.90;;;;;;;;;;5116227;28;20265;-77
2023/08/04 16:14:39;;;;;;;1999.90;999.90;;;;;;;;;;5116695;28;20367;-78
2023/08/04 16:17:24;;;;;;;1999.90;999.90;;;;;;;;;;5116751;28;20268;-78
2023/08/04 16:20:09;;;;;;;1999.90;999.90;;;;;;;;;;5116952;28;20236;-79
2023/08/04 16:22:55;;;;;;;1999.90;999.90;;;;;;;;;;5117406;28;20728;-78
2023/08/04 16:25:40;;;;;;;1999.90;999.90;;;;;;;;;;5116099;28;20737;-77
2023/08/04 16:28:26;;;;;;;1999.90;999.90;;;;;;;;;;5116828;28;20205;-78
2023/08/04 16:31:11;;;;;;;1999.90;999.90;;;;;;;;;;5116793;28;20265;-77
2023/08/04 16:34:00;;;;;;;1999.90;999.90;;;;;;;;;;5116082;28;20221;-77
2023/08/04 16:36:44;;;;;;;1999.90;999.90;;;;;;;;;;5115104;28;20203;-76
2023/08/04 16:39:31;;;;;;;1999.90;999.90;;;;;;;;;;5115362;28;20217;-78
2023/08/04 16:42:16;;;;;;;1999.90;999.90;;;;;;;;;;5114718;28;20818;-77
2023/08/04 16:45:01;;;;;;;1999.90;999.90;;;;;;;;;;5114709;28;20208;-77
2023/08/04 16:47:46;;;;;;;1999.90;999.90;;;;;;;;;;5114886;28;20207;-78
2023/08/04 16:50:33;;;;;;;1999.90;999.90;;;;;;;;;;5114482;28;20204;-78
2023/08/04 16:53:18;;;;;;;1999.90;999.90;;;;;;;;;;5114367;28;20253;-77
2023/08/04 16:56:05;;;;;;;1999.90;999.90;;;;;;;;;;5116809;28;20209;-78
2023/08/04 16:58:50;;;;;;;1999.90;999.90;;;;;;;;;;5114830;28;20249;-77
2023/08/04 17:01:35;;;;;;;1999.90;999.90;;;;;;;;;;5113821;28;20362;-78
2023/08/04 17:04:19;;;;;;;1999.90;999.90;;;;;;;;;;5112810;28;20408;-77
2023/08/04 17:07:04;;;;;;;1999.90;999.90;;;;;;;;;;5117272;28;20276;-78
2023/08/04 17:09:49;;;;;;;1999.90;999.90;;;;;;;;;;5118346;28;20209;-78
2023/08/04 17:12:36;;;;;;;1999.90;999.90;;;;;;;;;;5117137;28;20278;-77
2023/08/04 17:15:20;;;;;;;1999.90;999.90;;;;;;;;;;5118491;28;20197;-77
2023/08/04 17:18:05;;;;;;;1999.90;999.90;;;;;;;;;;5118877;28;20200;-77
2023/08/04 17:20:54;;;;;;;1999.90;999.90;;;;;;;;;;5118202;28;20244;-77
2023/08/04 17:23:39;;;;;;;1999.90;999.90;;;;;;;;;;5117919;28;20218;-77
2023/08/04 17:26:25;;;;;;;1999.90;999.90;;;;;;;;;;5117450;28;20209;-77
2023/08/04 17:29:12;;;;;;;1999.90;999.90;;;;;;;;;;5117595;28;20292;-77
2023/08/04 17:31:56;;;;;;;1999.90;999.90;;;;;;;;;;5118115;28;20698;-77
2023/08/04 17:34:44;;;;;;;1999.90;999.90;;;;;;;;;;5118303;28;20257;-78
2023/08/04 17:37:29;;;;;;;1999.90;999.90;;;;;;;;;;5118261;28;20302;-77
2023/08/04 17:40:14;;;;;;;1999.90;999.90;;;;;;;;;;5116941;28;20211;-78
2023/08/04 17:42:59;;;;;;;1999.90;999.90;;;;;;;;;;5117181;28;20290;-78
2023/08/04 17:45:49;;;;;;;1999.90;999.90;;;;;;;;;;5117171;28;20289;-77
2023/08/04 17:48:34;;;;;;;1999.90;999.90;;;;;;;;;;5116867;28;20226;-78
2023/08/04 17:51:19;;;;;;;1999.90;999.90;;;;;;;;;;5117265;28;20200;-77
2023/08/04 17:54:03;;;;;;;1999.90;999.90;;;;;;;;;;5116808;28;20217;-77
2023/08/04 17:56:48;;;;;;;1999.90;999.90;;;;;;;;;;5118985;28;20207;-78
2023/08/04 17:59:33;;;;;;;1999.90;999.90;;;;;;;;;;5119360;28;20700;-77
2023/08/04 18:02:20;;;;;;;1999.90;999.90;;;;;;;;;;5118592;28;20860;-77
2023/08/04 18:05:05;;;;;;;1999.90;999.90;;;;;;;;;;5120648;28;20620;-77
2023/08/04 18:07:50;;;;;;;1999.90;999.90;;;;;;;;;;5119908;28;20204;-78
2023/08/04 18:10:38;;;;;;;1999.90;999.90;;;;;;;;;;5118587;28;20734;-77
2023/08/04 18:13:23;;;;;;;1999.90;999.90;;;;;;;;;;5119339;28;20226;-77
2023/08/04 18:16:08;;;;;;;1999.90;999.90;;;;;;;;;;5119804;28;20207;-77
2023/08/04 18:18:54;;;;;;;1999.90;999.90;;;;;;;;;;5119012;28;20289;-78
2023/08/04 18:21:39;;;;;;;1999.90;999.90;;;;;;;;;;5118631;28;20247;-77
2023/08/04 18:24:24;;;;;;;1999.90;999.90;;;;;;;;;;5118796;28;20207;-78
2023/08/04 18:27:09;;;;;;;1999.90;999.90;;;;;;;;;;5118588;28;20200;-77
2023/08/04 18:29:53;;;;;;;1999.90;999.90;;;;;;;;;;5118260;28;20305;-77
2023/08/04 18:32:38;;;;;;;1999.90;999.90;;;;;;;;;;5118873;28;20532;-78
2023/08/04 18:35:25;;;;;;;1999.90;999.90;;;;;;;;;;5120245;28;20206;-78
2023/08/04 18:38:10;;;;;;;1999.90;999.90;;;;;;;;;;5119972;28;20203;-77
2023/08/04 18:40:55;;;;;;;1999.90;999.90;;;;;;;;;;5118992;28;20215;-76
2023/08/04 18:43:40;;;;;;;1999.90;999.90;;;;;;;;;;5119256;28;20662;-77
2023/08/04 18:46:24;;;;;;;1999.90;999.90;;;;;;;;;;5119813;28;20270;-77
2023/08/04 18:49:09;;;;;;;1999.90;999.90;;;;;;;;;;5119062;28;20199;-77
2023/08/04 18:51:55;;;;;;;1999.90;999.90;;;;;;;;;;5118881;28;20205;-78
2023/08/04 18:54:40;;;;;;;1999.90;999.90;;;;;;;;;;5119126;28;20213;-77
2023/08/04 18:57:25;;;;;;;1999.90;999.90;;;;;;;;;;5118690;28;20264;-77
2023/08/04 19:00:11;;;;;;;1999.90;999.90;;;;;;;;;;5118802;28;20254;-77
2023/08/04 19:02:56;;;;;;;1999.90;999.90;;;;;;;;;;5117378;28;20235;-77
2023/08/04 19:05:41;;;;;;;1999.90;999.90;;;;;;;;;;5117995;28;20206;-77
2023/08/04 19:08:27;;;;;;;1999.90;999.90;;;;;;;;;;5116552;28;20571;-77
2023/08/04 19:11:12;;;;;;;1999.90;999.90;;;;;;;;;;5116154;28;20183;-77
2023/08/04 19:13:57;;;;;;;1999.90;999.90;;;;;;;;;;5116144;28;20776;-75
2023/08/04 19:16:42;;;;;;;1999.90;999.90;;;;;;;;;;5116867;28;20215;-76
2023/08/04 19:19:27;;;;;;;1999.90;999.90;;;;;;;;;;5116662;28;20581;-77